sensor_id;sensor_type;location;lat;lon;timestamp;pressure;altitude;pressure_sealevel;temperature;humidity
11672;BME280;5892;43.412;24.612;2023-01-31T00:01:12;99538.25;;;1.98;88.16
11672;BME280;5892;43.412;24.612;2023-01-31T00:03:40;99535.53;;;1.98;87.74
11672;BME280;5892;43.412;24.612;2023-01-31T00:06:16;99543.09;;;2.01;87.31
11672;BME280;5892;43.412;24.612;2023-01-31T00:08:44;99533.91;;;1.97;87.34
11672;BME280;5892;43.412;24.612;2023-01-31T00:11:12;99554.44;;;2.13;87.90
11672;BME280;5892;43.412;24.612;2023-01-31T00:13:40;99564.94;;;2.20;87.52
11672;BME280;5892;43.412;24.612;2023-01-31T00:16:09;99568.19;;;2.17;87.67
11672;BME280;5892;43.412;24.612;2023-01-31T00:18:37;99571.72;;;2.18;88.10
11672;BME280;5892;43.412;24.612;2023-01-31T00:21:06;99564.69;;;2.17;88.07
11672;BME280;5892;43.412;24.612;2023-01-31T00:23:34;99545.81;;;1.96;88.41
11672;BME280;5892;43.412;24.612;2023-01-31T00:26:12;99553.34;;;2.15;88.76
11672;BME280;5892;43.412;24.612;2023-01-31T00:28:41;99548.75;;;2.10;88.72
11672;BME280;5892;43.412;24.612;2023-01-31T00:31:10;99520.41;;;1.92;88.73
11672;BME280;5892;43.412;24.612;2023-01-31T00:33:39;99545.25;;;2.04;88.92
11672;BME280;5892;43.412;24.612;2023-01-31T00:36:08;99551.69;;;2.24;88.67
11672;BME280;5892;43.412;24.612;2023-01-31T00:38:35;99560.06;;;2.22;88.99
11672;BME280;5892;43.412;24.612;2023-01-31T00:41:03;99554.94;;;2.21;89.27
11672;BME280;5892;43.412;24.612;2023-01-31T00:43:31;99554.66;;;2.22;89.19
11672;BME280;5892;43.412;24.612;2023-01-31T00:45:59;99544.13;;;2.21;88.93
11672;BME280;5892;43.412;24.612;2023-01-31T00:48:30;99544.91;;;2.26;88.60
11672;BME280;5892;43.412;24.612;2023-01-31T00:50:57;99538.19;;;2.24;86.69
11672;BME280;5892;43.412;24.612;2023-01-31T00:53:24;99539.25;;;2.28;87.06
11672;BME280;5892;43.412;24.612;2023-01-31T00:55:52;99542.47;;;2.35;86.59
11672;BME280;5892;43.412;24.612;2023-01-31T00:58:20;99519.75;;;2.36;85.52
11672;BME280;5892;43.412;24.612;2023-01-31T01:00:48;99488.47;;;2.20;84.49
11672;BME280;5892;43.412;24.612;2023-01-31T01:03:15;99489.00;;;2.17;82.85
11672;BME280;5892;43.412;24.612;2023-01-31T01:05:44;99521.09;;;2.43;83.81
11672;BME280;5892;43.412;24.612;2023-01-31T01:08:11;99518.13;;;2.45;83.27
11672;BME280;5892;43.412;24.612;2023-01-31T01:10:37;99516.47;;;2.49;82.81
11672;BME280;5892;43.412;24.612;2023-01-31T01:13:04;99525.38;;;2.54;82.94
11672;BME280;5892;43.412;24.612;2023-01-31T01:15:36;99526.72;;;2.52;81.08
11672;BME280;5892;43.412;24.612;2023-01-31T01:18:03;99504.91;;;2.33;79.92
11672;BME280;5892;43.412;24.612;2023-01-31T01:20:30;99484.66;;;2.26;80.85
11672;BME280;5892;43.412;24.612;2023-01-31T01:22:59;99527.53;;;2.52;80.93
11672;BME280;5892;43.412;24.612;2023-01-31T01:25:26;99524.00;;;2.52;80.34
11672;BME280;5892;43.412;24.612;2023-01-31T01:27:53;99520.47;;;2.56;80.50
11672;BME280;5892;43.412;24.612;2023-01-31T01:30:20;99523.47;;;2.55;80.25
11672;BME280;5892;43.412;24.612;2023-01-31T01:32:47;99516.44;;;2.59;79.85
11672;BME280;5892;43.412;24.612;2023-01-31T01:35:14;99526.69;;;2.57;79.71
11672;BME280;5892;43.412;24.612;2023-01-31T01:37:42;99519.97;;;2.49;80.38
11672;BME280;5892;43.412;24.612;2023-01-31T01:40:11;99526.19;;;2.55;80.19
11672;BME280;5892;43.412;24.612;2023-01-31T01:42:38;99524.81;;;2.52;78.93
11672;BME280;5892;43.412;24.612;2023-01-31T01:45:10;99517.00;;;2.51;79.22
11672;BME280;5892;43.412;24.612;2023-01-31T01:47:44;99515.91;;;2.52;79.17
11672;BME280;5892;43.412;24.612;2023-01-31T01:50:16;99501.09;;;2.44;78.56
11672;BME280;5892;43.412;24.612;2023-01-31T01:52:47;99514.81;;;2.53;78.98
11672;BME280;5892;43.412;24.612;2023-01-31T01:55:21;99432.31;;;2.01;79.03
11672;BME280;5892;43.412;24.612;2023-01-31T01:57:52;99487.09;;;2.22;79.16
11672;BME280;5892;43.412;24.612;2023-01-31T02:00:22;99512.13;;;2.48;79.25
11672;BME280;5892;43.412;24.612;2023-01-31T02:02:51;99494.34;;;2.37;79.65
11672;BME280;5892;43.412;24.612;2023-01-31T02:05:21;99523.53;;;2.45;79.27
11672;BME280;5892;43.412;24.612;2023-01-31T02:07:50;99512.72;;;2.45;80.14
11672;BME280;5892;43.412;24.612;2023-01-31T02:10:21;99507.34;;;2.35;79.22
11672;BME280;5892;43.412;24.612;2023-01-31T02:12:49;99434.81;;;1.83;80.03
11672;BME280;5892;43.412;24.612;2023-01-31T02:15:17;99523.81;;;2.38;80.51
11672;BME280;5892;43.412;24.612;2023-01-31T02:17:44;99528.94;;;2.40;80.58
11672;BME280;5892;43.412;24.612;2023-01-31T02:20:25;99531.66;;;2.40;81.17
11672;BME280;5892;43.412;24.612;2023-01-31T02:23:07;99544.88;;;2.36;80.83
11672;BME280;5892;43.412;24.612;2023-01-31T02:29:22;99523.31;;;2.21;82.50
11672;BME280;5892;43.412;24.612;2023-01-31T02:32:26;99529.28;;;2.18;83.00
11672;BME280;5892;43.412;24.612;2023-01-31T02:35:04;99539.28;;;2.12;83.50
11672;BME280;5892;43.412;24.612;2023-01-31T02:37:42;99552.81;;;2.07;84.44
11672;BME280;5892;43.412;24.612;2023-01-31T02:40:16;99544.72;;;2.07;84.79
11672;BME280;5892;43.412;24.612;2023-01-31T02:43:04;99518.25;;;1.89;85.22
11672;BME280;5892;43.412;24.612;2023-01-31T02:45:39;99540.66;;;1.95;85.89
11672;BME280;5892;43.412;24.612;2023-01-31T02:48:16;99517.75;;;1.82;85.87
11672;BME280;5892;43.412;24.612;2023-01-31T02:50:49;99553.63;;;2.03;86.12
11672;BME280;5892;43.412;24.612;2023-01-31T02:53:25;99555.28;;;1.99;86.18
11672;BME280;5892;43.412;24.612;2023-01-31T02:55:55;99543.34;;;2.00;86.31
11672;BME280;5892;43.412;24.612;2023-01-31T02:58:48;99549.56;;;2.05;86.60
11672;BME280;5892;43.412;24.612;2023-01-31T03:01:20;99552.84;;;1.92;86.97
11672;BME280;5892;43.412;24.612;2023-01-31T03:03:51;99570.13;;;1.96;87.59
11672;BME280;5892;43.412;24.612;2023-01-31T03:06:40;99570.09;;;2.01;87.82
11672;BME280;5892;43.412;24.612;2023-01-31T03:09:21;99564.16;;;1.94;88.22
11672;BME280;5892;43.412;24.612;2023-01-31T03:12:00;99572.56;;;1.93;89.31
11672;BME280;5892;43.412;24.612;2023-01-31T03:14:33;99570.69;;;1.93;90.06
11672;BME280;5892;43.412;24.612;2023-01-31T03:17:07;99574.97;;;1.89;90.74
11672;BME280;5892;43.412;24.612;2023-01-31T03:20:03;99577.97;;;1.83;91.01
11672;BME280;5892;43.412;24.612;2023-01-31T03:22:33;99579.31;;;1.85;91.28
11672;BME280;5892;43.412;24.612;2023-01-31T03:25:03;99504.78;;;1.28;91.50
11672;BME280;5892;43.412;24.612;2023-01-31T03:27:32;99595.50;;;1.75;92.26
11672;BME280;5892;43.412;24.612;2023-01-31T03:30:04;99591.75;;;1.76;92.58
11672;BME280;5892;43.412;24.612;2023-01-31T03:32:37;99610.91;;;1.75;93.28
11672;BME280;5892;43.412;24.612;2023-01-31T03:35:07;99615.25;;;1.76;93.66
11672;BME280;5892;43.412;24.612;2023-01-31T03:37:42;99606.31;;;1.80;93.61
11672;BME280;5892;43.412;24.612;2023-01-31T03:40:18;99613.34;;;1.81;94.02
11672;BME280;5892;43.412;24.612;2023-01-31T03:42:50;99604.69;;;1.79;94.48
11672;BME280;5892;43.412;24.612;2023-01-31T03:45:26;99606.06;;;1.82;94.77
11672;BME280;5892;43.412;24.612;2023-01-31T03:47:56;99607.94;;;1.96;95.04
11672;BME280;5892;43.412;24.612;2023-01-31T03:50:30;99614.69;;;1.94;95.14
11672;BME280;5892;43.412;24.612;2023-01-31T03:53:04;99613.91;;;1.98;94.86
11672;BME280;5892;43.412;24.612;2023-01-31T03:55:37;99624.72;;;2.03;95.20
11672;BME280;5892;43.412;24.612;2023-01-31T03:58:07;99588.78;;;1.78;95.83
11672;BME280;5892;43.412;24.612;2023-01-31T04:00:38;99614.97;;;1.87;96.30
11672;BME280;5892;43.412;24.612;2023-01-31T04:03:17;99619.56;;;1.87;96.72
11672;BME280;5892;43.412;24.612;2023-01-31T04:05:50;99617.69;;;1.82;97.41
11672;BME280;5892;43.412;24.612;2023-01-31T04:08:20;99607.94;;;1.66;98.00
11672;BME280;5892;43.412;24.612;2023-01-31T04:10:48;99598.78;;;1.62;98.40
11672;BME280;5892;43.412;24.612;2023-01-31T04:13:16;99594.97;;;1.63;98.62
11672;BME280;5892;43.412;24.612;2023-01-31T04:15:42;99618.19;;;1.89;98.59
11672;BME280;5892;43.412;24.612;2023-01-31T04:18:09;99613.91;;;1.93;98.15
11672;BME280;5892;43.412;24.612;2023-01-31T04:20:36;99617.13;;;1.95;98.50
11672;BME280;5892;43.412;24.612;2023-01-31T04:23:05;99626.31;;;1.89;98.57
11672;BME280;5892;43.412;24.612;2023-01-31T04:25:32;99618.50;;;1.78;99.27
11672;BME280;5892;43.412;24.612;2023-01-31T04:27:59;99607.94;;;1.76;99.39
11672;BME280;5892;43.412;24.612;2023-01-31T04:30:27;99619.28;;;1.78;100.00
11672;BME280;5892;43.412;24.612;2023-01-31T04:32:54;99609.56;;;1.62;100.00
11672;BME280;5892;43.412;24.612;2023-01-31T04:35:21;99638.22;;;1.83;100.00
11672;BME280;5892;43.412;24.612;2023-01-31T04:37:48;99625.78;;;1.77;100.00
11672;BME280;5892;43.412;24.612;2023-01-31T04:40:16;99590.63;;;1.52;100.00
11672;BME280;5892;43.412;24.612;2023-01-31T04:42:43;99633.06;;;1.77;100.00
11672;BME280;5892;43.412;24.612;2023-01-31T04:45:10;99639.28;;;1.92;100.00
11672;BME280;5892;43.412;24.612;2023-01-31T04:47:37;99646.84;;;1.85;100.00
11672;BME280;5892;43.412;24.612;2023-01-31T04:50:06;99637.94;;;1.95;100.00
11672;BME280;5892;43.412;24.612;2023-01-31T04:52:33;99638.47;;;1.92;100.00
11672;BME280;5892;43.412;24.612;2023-01-31T04:55:00;99642.50;;;1.94;100.00
11672;BME280;5892;43.412;24.612;2023-01-31T04:57:29;99654.44;;;1.93;100.00
11672;BME280;5892;43.412;24.612;2023-01-31T04:59:56;99652.00;;;1.97;100.00
11672;BME280;5892;43.412;24.612;2023-01-31T05:02:23;99606.88;;;1.62;100.00
11672;BME280;5892;43.412;24.612;2023-01-31T05:04:51;99650.63;;;1.99;100.00
11672;BME280;5892;43.412;24.612;2023-01-31T05:07:18;99602.00;;;1.64;100.00
11672;BME280;5892;43.412;24.612;2023-01-31T05:09:45;99603.06;;;1.73;100.00
11672;BME280;5892;43.412;24.612;2023-01-31T05:12:11;99646.31;;;2.03;100.00
11672;BME280;5892;43.412;24.612;2023-01-31T05:14:42;99646.84;;;2.00;100.00
11672;BME280;5892;43.412;24.612;2023-01-31T05:17:09;99660.91;;;1.97;100.00
11672;BME280;5892;43.412;24.612;2023-01-31T05:19:36;99640.91;;;1.83;100.00
11672;BME280;5892;43.412;24.612;2023-01-31T05:22:03;99678.47;;;2.00;100.00
11672;BME280;5892;43.412;24.612;2023-01-31T05:24:31;99677.13;;;2.02;100.00
11672;BME280;5892;43.412;24.612;2023-01-31T05:27:00;99679.28;;;2.00;100.00
11672;BME280;5892;43.412;24.612;2023-01-31T05:29:55;99606.78;;;1.32;100.00
11672;BME280;5892;43.412;24.612;2023-01-31T05:32:22;99689.25;;;2.05;100.00
11672;BME280;5892;43.412;24.612;2023-01-31T05:34:49;99694.41;;;2.01;100.00
11672;BME280;5892;43.412;24.612;2023-01-31T05:37:16;99693.34;;;2.07;100.00
11672;BME280;5892;43.412;24.612;2023-01-31T05:39:43;99694.66;;;2.10;100.00
11672;BME280;5892;43.412;24.612;2023-01-31T05:42:10;99695.78;;;2.14;100.00
11672;BME280;5892;43.412;24.612;2023-01-31T05:44:37;99699.25;;;2.09;100.00
11672;BME280;5892;43.412;24.612;2023-01-31T05:47:05;99669.81;;;1.98;100.00
11672;BME280;5892;43.412;24.612;2023-01-31T05:49:33;99710.88;;;2.10;100.00
11672;BME280;5892;43.412;24.612;2023-01-31T05:52:00;99718.19;;;2.09;100.00
11672;BME280;5892;43.412;24.612;2023-01-31T05:54:27;99703.59;;;2.05;100.00
11672;BME280;5892;43.412;24.612;2023-01-31T05:56:54;99704.94;;;1.98;100.00
11672;BME280;5892;43.412;24.612;2023-01-31T05:59:21;99716.56;;;2.03;100.00
11672;BME280;5892;43.412;24.612;2023-01-31T06:01:48;99671.69;;;1.77;100.00
11672;BME280;5892;43.412;24.612;2023-01-31T06:04:20;99701.69;;;2.06;100.00
11672;BME280;5892;43.412;24.612;2023-01-31T06:06:47;99704.13;;;2.02;100.00
11672;BME280;5892;43.412;24.612;2023-01-31T06:09:14;99706.03;;;1.97;100.00
11672;BME280;5892;43.412;24.612;2023-01-31T06:11:41;99645.75;;;1.66;100.00
11672;BME280;5892;43.412;24.612;2023-01-31T06:14:09;99704.41;;;1.96;100.00
11672;BME280;5892;43.412;24.612;2023-01-31T06:16:36;99714.41;;;1.95;100.00
11672;BME280;5892;43.412;24.612;2023-01-31T06:19:03;99714.13;;;2.02;100.00
11672;BME280;5892;43.412;24.612;2023-01-31T06:21:31;99715.75;;;1.98;100.00
11672;BME280;5892;43.412;24.612;2023-01-31T06:23:58;99714.94;;;2.07;100.00
11672;BME280;5892;43.412;24.612;2023-01-31T06:26:26;99722.81;;;2.14;100.00
11672;BME280;5892;43.412;24.612;2023-01-31T06:28:53;99720.38;;;2.18;100.00
11672;BME280;5892;43.412;24.612;2023-01-31T06:31:20;99702.53;;;2.22;100.00
11672;BME280;5892;43.412;24.612;2023-01-31T06:33:48;99721.72;;;2.35;100.00
11672;BME280;5892;43.412;24.612;2023-01-31T06:36:16;99698.75;;;2.18;100.00
11672;BME280;5892;43.412;24.612;2023-01-31T06:38:47;99658.72;;;2.04;100.00
11672;BME280;5892;43.412;24.612;2023-01-31T06:41:14;99741.97;;;2.68;100.00
11672;BME280;5892;43.412;24.612;2023-01-31T06:43:41;99672.50;;;2.33;100.00
11672;BME280;5892;43.412;24.612;2023-01-31T06:46:08;99734.38;;;2.80;100.00
11672;BME280;5892;43.412;24.612;2023-01-31T06:48:35;99734.66;;;2.74;100.00
11672;BME280;5892;43.412;24.612;2023-01-31T06:51:03;99744.63;;;2.88;100.00
11672;BME280;5892;43.412;24.612;2023-01-31T06:53:30;99748.44;;;2.92;100.00
11672;BME280;5892;43.412;24.612;2023-01-31T06:55:58;99650.63;;;2.30;100.00
11672;BME280;5892;43.412;24.612;2023-01-31T06:58:25;99753.88;;;2.82;100.00
11672;BME280;5892;43.412;24.612;2023-01-31T07:00:53;99681.19;;;2.35;100.00
11672;BME280;5892;43.412;24.612;2023-01-31T07:03:20;99746.88;;;2.61;100.00
11672;BME280;5892;43.412;24.612;2023-01-31T07:05:46;99761.72;;;2.59;100.00
11672;BME280;5892;43.412;24.612;2023-01-31T07:08:13;99739.03;;;2.54;100.00
11672;BME280;5892;43.412;24.612;2023-01-31T07:10:40;99755.25;;;2.54;100.00
11672;BME280;5892;43.412;24.612;2023-01-31T07:13:09;99746.06;;;2.55;100.00
11672;BME280;5892;43.412;24.612;2023-01-31T07:15:36;99757.13;;;2.69;100.00
11672;BME280;5892;43.412;24.612;2023-01-31T07:18:03;99750.34;;;2.87;100.00
11672;BME280;5892;43.412;24.612;2023-01-31T07:20:30;99755.97;;;3.11;100.00
11672;BME280;5892;43.412;24.612;2023-01-31T07:22:58;99762.72;;;3.18;99.94
11672;BME280;5892;43.412;24.612;2023-01-31T07:25:25;99761.38;;;3.11;100.00
11672;BME280;5892;43.412;24.612;2023-01-31T07:27:52;99715.38;;;3.06;99.29
11672;BME280;5892;43.412;24.612;2023-01-31T07:30:21;99773.13;;;3.60;98.18
11672;BME280;5892;43.412;24.612;2023-01-31T07:32:47;99767.06;;;3.78;97.50
11672;BME280;5892;43.412;24.612;2023-01-31T07:35:17;99753.06;;;3.66;97.31
11672;BME280;5892;43.412;24.612;2023-01-31T07:37:45;99767.41;;;3.67;96.97
11672;BME280;5892;43.412;24.612;2023-01-31T07:40:14;99772.06;;;3.56;97.66
11672;BME280;5892;43.412;24.612;2023-01-31T07:42:41;99761.25;;;3.51;98.11
11672;BME280;5892;43.412;24.612;2023-01-31T07:45:11;99779.41;;;3.56;97.69
11672;BME280;5892;43.412;24.612;2023-01-31T07:47:40;99762.38;;;3.40;97.45
11672;BME280;5892;43.412;24.612;2023-01-31T07:50:08;99780.50;;;3.45;97.97
11672;BME280;5892;43.412;24.612;2023-01-31T07:52:36;99771.88;;;3.37;98.66
11672;BME280;5892;43.412;24.612;2023-01-31T07:55:03;99740.28;;;3.13;99.51
11672;BME280;5892;43.412;24.612;2023-01-31T07:57:30;99760.22;;;3.32;100.00
11672;BME280;5892;43.412;24.612;2023-01-31T07:59:58;99753.22;;;3.21;100.00
11672;BME280;5892;43.412;24.612;2023-01-31T08:02:25;99767.31;;;3.23;100.00
11672;BME280;5892;43.412;24.612;2023-01-31T08:05:13;99745.66;;;3.18;100.00
11672;BME280;5892;43.412;24.612;2023-01-31T08:07:41;99758.09;;;3.24;100.00
11672;BME280;5892;43.412;24.612;2023-01-31T08:10:09;99758.09;;;3.29;100.00
11672;BME280;5892;43.412;24.612;2023-01-31T08:12:36;99763.94;;;3.51;100.00
11672;BME280;5892;43.412;24.612;2023-01-31T08:15:03;99760.59;;;3.74;99.09
11672;BME280;5892;43.412;24.612;2023-01-31T08:17:31;99726.75;;;3.67;98.63
11672;BME280;5892;43.412;24.612;2023-01-31T08:19:58;99751.97;;;4.11;98.02
11672;BME280;5892;43.412;24.612;2023-01-31T08:22:29;99710.88;;;3.94;96.73
11672;BME280;5892;43.412;24.612;2023-01-31T08:24:56;99768.41;;;4.25;96.12
11672;BME280;5892;43.412;24.612;2023-01-31T08:27:24;99778.88;;;4.42;95.83
11672;BME280;5892;43.412;24.612;2023-01-31T08:29:51;99781.06;;;4.45;95.29
11672;BME280;5892;43.412;24.612;2023-01-31T08:32:17;99772.06;;;4.49;95.52
11672;BME280;5892;43.412;24.612;2023-01-31T08:34:44;99766.91;;;4.48;95.30
11672;BME280;5892;43.412;24.612;2023-01-31T08:37:11;99768.09;;;4.71;94.70
11672;BME280;5892;43.412;24.612;2023-01-31T08:39:39;99778.03;;;4.80;94.45
11672;BME280;5892;43.412;24.612;2023-01-31T08:42:08;99760.06;;;4.84;94.21
11672;BME280;5892;43.412;24.612;2023-01-31T08:44:36;99762.78;;;4.84;93.96
11672;BME280;5892;43.412;24.612;2023-01-31T08:47:03;99700.41;;;4.50;93.42
11672;BME280;5892;43.412;24.612;2023-01-31T08:49:30;99765.69;;;4.93;93.91
11672;BME280;5892;43.412;24.612;2023-01-31T08:51:58;99765.88;;;5.01;93.43
11672;BME280;5892;43.412;24.612;2023-01-31T08:54:25;99764.50;;;5.04;93.53
11672;BME280;5892;43.412;24.612;2023-01-31T08:56:53;99762.81;;;5.08;93.62
11672;BME280;5892;43.412;24.612;2023-01-31T08:59:20;99763.13;;;5.06;93.58
11672;BME280;5892;43.412;24.612;2023-01-31T09:01:46;99756.34;;;5.04;92.56
11672;BME280;5892;43.412;24.612;2023-01-31T09:04:13;99705.19;;;4.63;92.88
11672;BME280;5892;43.412;24.612;2023-01-31T09:06:40;99739.28;;;4.98;93.21
11672;BME280;5892;43.412;24.612;2023-01-31T09:09:08;99765.47;;;5.13;93.51
11672;BME280;5892;43.412;24.612;2023-01-31T09:11:36;99756.66;;;5.26;94.09
11672;BME280;5892;43.412;24.612;2023-01-31T09:14:05;99715.06;;;5.07;93.67
11672;BME280;5892;43.412;24.612;2023-01-31T09:16:32;99756.25;;;5.38;91.77
11672;BME280;5892;43.412;24.612;2023-01-31T09:18:59;99752.13;;;5.40;92.50
11672;BME280;5892;43.412;24.612;2023-01-31T09:21:26;99767.00;;;5.48;92.30
11672;BME280;5892;43.412;24.612;2023-01-31T09:23:54;99724.59;;;5.28;90.60
11672;BME280;5892;43.412;24.612;2023-01-31T09:26:21;99755.88;;;5.44;90.39
11672;BME280;5892;43.412;24.612;2023-01-31T09:28:48;99742.59;;;5.43;91.71
11672;BME280;5892;43.412;24.612;2023-01-31T09:31:19;99732.91;;;5.37;91.06
11672;BME280;5892;43.412;24.612;2023-01-31T09:33:46;99727.41;;;5.42;91.62
11672;BME280;5892;43.412;24.612;2023-01-31T09:36:15;99725.66;;;5.51;92.16
11672;BME280;5892;43.412;24.612;2023-01-31T09:38:43;99720.22;;;5.51;90.90
11672;BME280;5892;43.412;24.612;2023-01-31T09:41:16;99721.97;;;5.42;91.12
11672;BME280;5892;43.412;24.612;2023-01-31T09:43:48;99750.28;;;5.60;91.04
11672;BME280;5892;43.412;24.612;2023-01-31T09:46:19;99706.94;;;5.49;90.84
11672;BME280;5892;43.412;24.612;2023-01-31T09:48:49;99740.19;;;5.84;89.92
11672;BME280;5892;43.412;24.612;2023-01-31T09:51:18;99735.66;;;5.98;88.44
11672;BME280;5892;43.412;24.612;2023-01-31T09:53:46;99724.56;;;5.94;86.96
11672;BME280;5892;43.412;24.612;2023-01-31T09:56:20;99707.44;;;5.94;86.79
11672;BME280;5892;43.412;24.612;2023-01-31T09:58:55;99750.56;;;6.19;86.77
11672;BME280;5892;43.412;24.612;2023-01-31T10:01:30;99748.66;;;6.20;86.77
11672;BME280;5892;43.412;24.612;2023-01-31T10:04:18;99730.50;;;6.15;86.68
11672;BME280;5892;43.412;24.612;2023-01-31T10:06:52;99755.13;;;6.24;86.10
11672;BME280;5892;43.412;24.612;2023-01-31T10:09:27;99751.09;;;6.21;86.30
11672;BME280;5892;43.412;24.612;2023-01-31T10:11:58;99713.88;;;5.98;86.37
11672;BME280;5892;43.412;24.612;2023-01-31T10:14:32;99727.28;;;5.94;86.99
11672;BME280;5892;43.412;24.612;2023-01-31T10:17:08;99734.91;;;6.11;87.87
11672;BME280;5892;43.412;24.612;2023-01-31T10:19:43;99729.53;;;6.25;88.15
11672;BME280;5892;43.412;24.612;2023-01-31T10:22:17;99742.00;;;6.45;86.83
11672;BME280;5892;43.412;24.612;2023-01-31T10:24:48;99726.94;;;6.33;85.74
11672;BME280;5892;43.412;24.612;2023-01-31T10:27:30;99726.81;;;6.44;85.95
11672;BME280;5892;43.412;24.612;2023-01-31T10:30:03;99707.81;;;6.38;84.56
11672;BME280;5892;43.412;24.612;2023-01-31T10:32:36;99715.84;;;6.30;84.59
11672;BME280;5892;43.412;24.612;2023-01-31T10:35:12;99712.03;;;6.31;86.43
11672;BME280;5892;43.412;24.612;2023-01-31T10:37:45;99692.97;;;6.31;84.64
11672;BME280;5892;43.412;24.612;2023-01-31T10:40:18;99719.66;;;6.48;83.90
11672;BME280;5892;43.412;24.612;2023-01-31T10:42:49;99699.44;;;6.35;82.63
11672;BME280;5892;43.412;24.612;2023-01-31T10:45:19;99713.22;;;6.25;82.69
11672;BME280;5892;43.412;24.612;2023-01-31T10:47:50;99700.13;;;6.08;84.08
11672;BME280;5892;43.412;24.612;2023-01-31T10:50:19;99732.91;;;6.35;83.43
11672;BME280;5892;43.412;24.612;2023-01-31T10:53:04;99725.28;;;6.19;83.26
11672;BME280;5892;43.412;24.612;2023-01-31T10:55:54;99723.22;;;6.11;84.28
11672;BME280;5892;43.412;24.612;2023-01-31T10:58:25;99739.38;;;6.02;84.93
11672;BME280;5892;43.412;24.612;2023-01-31T11:00:54;99743.41;;;6.23;84.78
11672;BME280;5892;43.412;24.612;2023-01-31T11:03:23;99751.09;;;6.21;84.85
11672;BME280;5892;43.412;24.612;2023-01-31T11:05:51;99742.41;;;6.19;84.92
11672;BME280;5892;43.412;24.612;2023-01-31T11:08:27;99726.56;;;6.40;84.90
11672;BME280;5892;43.412;24.612;2023-01-31T11:10:56;99748.00;;;6.60;84.20
11672;BME280;5892;43.412;24.612;2023-01-31T11:13:24;99723.84;;;6.72;83.01
11672;BME280;5892;43.412;24.612;2023-01-31T11:15:53;99731.63;;;6.79;81.88
11672;BME280;5892;43.412;24.612;2023-01-31T11:18:34;99733.50;;;6.65;82.44
11672;BME280;5892;43.412;24.612;2023-01-31T11:21:04;99712.22;;;6.34;82.77
11672;BME280;5892;43.412;24.612;2023-01-31T11:23:33;99715.28;;;6.33;82.56
11672;BME280;5892;43.412;24.612;2023-01-31T11:26:01;99719.13;;;6.46;82.99
11672;BME280;5892;43.412;24.612;2023-01-31T11:28:34;99731.59;;;6.65;83.09
11672;BME280;5892;43.412;24.612;2023-01-31T11:31:03;99723.19;;;6.94;82.41
11672;BME280;5892;43.412;24.612;2023-01-31T11:33:41;99721.47;;;6.85;81.02
11672;BME280;5892;43.412;24.612;2023-01-31T11:36:12;99723.00;;;6.91;81.71
11672;BME280;5892;43.412;24.612;2023-01-31T11:38:39;99727.53;;;6.95;81.22
11672;BME280;5892;43.412;24.612;2023-01-31T11:41:32;99721.66;;;7.02;80.73
11672;BME280;5892;43.412;24.612;2023-01-31T11:44:05;99723.09;;;7.13;81.22
11672;BME280;5892;43.412;24.612;2023-01-31T11:46:41;99722.09;;;7.22;80.96
11672;BME280;5892;43.412;24.612;2023-01-31T11:49:13;99721.78;;;7.24;81.38
11672;BME280;5892;43.412;24.612;2023-01-31T11:51:41;99720.66;;;7.39;80.39
11672;BME280;5892;43.412;24.612;2023-01-31T11:54:12;99715.66;;;7.32;80.07
11672;BME280;5892;43.412;24.612;2023-01-31T11:56:42;99725.69;;;7.59;79.58
11672;BME280;5892;43.412;24.612;2023-01-31T11:59:13;99713.31;;;7.53;79.10
11672;BME280;5892;43.412;24.612;2023-01-31T12:01:45;99731.84;;;7.64;79.96
11672;BME280;5892;43.412;24.612;2023-01-31T12:04:17;99702.22;;;7.36;79.11
11672;BME280;5892;43.412;24.612;2023-01-31T12:06:57;99694.84;;;7.22;78.67
11672;BME280;5892;43.412;24.612;2023-01-31T12:09:27;99718.28;;;7.37;80.24
11672;BME280;5892;43.412;24.612;2023-01-31T12:11:56;99729.78;;;7.20;80.53
11672;BME280;5892;43.412;24.612;2023-01-31T12:14:25;99729.47;;;7.22;81.06
11672;BME280;5892;43.412;24.612;2023-01-31T12:17:01;99737.22;;;7.15;80.27
11672;BME280;5892;43.412;24.612;2023-01-31T12:19:39;99729.75;;;7.07;80.02
11672;BME280;5892;43.412;24.612;2023-01-31T12:22:14;99726.72;;;6.95;81.11
11672;BME280;5892;43.412;24.612;2023-01-31T12:24:55;99725.00;;;6.85;82.98
11672;BME280;5892;43.412;24.612;2023-01-31T12:27:37;99728.38;;;6.77;84.23
11672;BME280;5892;43.412;24.612;2023-01-31T12:30:26;99734.34;;;6.79;84.33
11672;BME280;5892;43.412;24.612;2023-01-31T12:33:10;99731.00;;;6.68;84.70
11672;BME280;5892;43.412;24.612;2023-01-31T12:35:54;99741.09;;;6.81;85.17
11672;BME280;5892;43.412;24.612;2023-01-31T12:38:35;99712.22;;;6.67;83.20
11672;BME280;5892;43.412;24.612;2023-01-31T12:41:16;99722.28;;;6.85;83.14
11672;BME280;5892;43.412;24.612;2023-01-31T12:44:01;99744.47;;;6.92;83.33
11672;BME280;5892;43.412;24.612;2023-01-31T12:46:54;99740.44;;;6.90;84.32
11672;BME280;5892;43.412;24.612;2023-01-31T12:52:27;99744.25;;;6.89;84.30
11672;BME280;5892;43.412;24.612;2023-01-31T12:55:13;99738.81;;;6.89;84.96
11672;BME280;5892;43.412;24.612;2023-01-31T12:57:51;99755.56;;;6.96;85.22
11672;BME280;5892;43.412;24.612;2023-01-31T13:00:30;99766.25;;;6.92;85.05
11672;BME280;5892;43.412;24.612;2023-01-31T13:03:14;99757.41;;;7.00;85.41
11672;BME280;5892;43.412;24.612;2023-01-31T13:05:48;99763.13;;;6.85;83.98
11672;BME280;5892;43.412;24.612;2023-01-31T13:08:20;99744.16;;;6.80;83.69
11672;BME280;5892;43.412;24.612;2023-01-31T13:10:53;99732.84;;;6.54;84.18
11672;BME280;5892;43.412;24.612;2023-01-31T13:13:25;99759.31;;;6.67;83.72
11672;BME280;5892;43.412;24.612;2023-01-31T13:15:56;99776.50;;;6.81;84.03
11672;BME280;5892;43.412;24.612;2023-01-31T13:18:27;99781.06;;;6.86;82.94
11672;BME280;5892;43.412;24.612;2023-01-31T13:20:56;99771.19;;;6.90;82.01
11672;BME280;5892;43.412;24.612;2023-01-31T13:23:30;99767.66;;;6.90;81.92
11672;BME280;5892;43.412;24.612;2023-01-31T13:26:02;99773.31;;;6.93;81.43
11672;BME280;5892;43.412;24.612;2023-01-31T13:28:35;99765.31;;;6.83;81.50
11672;BME280;5892;43.412;24.612;2023-01-31T13:31:09;99776.97;;;7.02;80.96
11672;BME280;5892;43.412;24.612;2023-01-31T13:33:44;99778.78;;;7.07;80.80